sensor_id;sensor_type;location;lat;lon;timestamp;P1;durP1;ratioP1;P2;durP2;ratioP2
813;SDS011;389;48.710;9.392;2023-02-15T00:00:21;28.20;;;11.90;;
813;SDS011;389;48.710;9.392;2023-02-15T00:02:47;32.20;;;13.07;;
813;SDS011;389;48.710;9.392;2023-02-15T00:05:12;33.77;;;13.07;;
813;SDS011;389;48.710;9.392;2023-02-15T00:07:38;31.70;;;14.60;;
813;SDS011;389;48.710;9.392;2023-02-15T00:10:04;29.67;;;13.13;;
813;SDS011;389;48.710;9.392;2023-02-15T00:12:30;30.27;;;13.60;;
813;SDS011;389;48.710;9.392;2023-02-15T00:14:55;23.00;;;11.90;;
813;SDS011;389;48.710;9.392;2023-02-15T00:17:21;24.07;;;12.57;;
813;SDS011;389;48.710;9.392;2023-02-15T00:19:47;34.20;;;15.43;;
813;SDS011;389;48.710;9.392;2023-02-15T00:22:13;26.87;;;13.30;;
813;SDS011;389;48.710;9.392;2023-02-15T00:24:39;27.23;;;15.27;;
813;SDS011;389;48.710;9.392;2023-02-15T00:27:05;31.57;;;13.10;;
813;SDS011;389;48.710;9.392;2023-02-15T00:29:31;30.60;;;14.50;;
813;SDS011;389;48.710;9.392;2023-02-15T00:31:56;28.43;;;12.67;;
813;SDS011;389;48.710;9.392;2023-02-15T00:34:23;28.70;;;12.57;;
813;SDS011;389;48.710;9.392;2023-02-15T00:36:50;26.83;;;12.77;;
813;SDS011;389;48.710;9.392;2023-02-15T00:39:16;29.50;;;12.37;;
813;SDS011;389;48.710;9.392;2023-02-15T00:41:42;23.67;;;12.30;;
813;SDS011;389;48.710;9.392;2023-02-15T00:44:08;20.13;;;12.47;;
813;SDS011;389;48.710;9.392;2023-02-15T00:46:34;26.67;;;11.03;;
813;SDS011;389;48.710;9.392;2023-02-15T00:49:00;30.27;;;12.93;;
813;SDS011;389;48.710;9.392;2023-02-15T00:51:26;27.17;;;11.53;;
813;SDS011;389;48.710;9.392;2023-02-15T00:53:52;25.57;;;11.40;;
813;SDS011;389;48.710;9.392;2023-02-15T00:56:18;24.83;;;11.60;;
813;SDS011;389;48.710;9.392;2023-02-15T00:58:44;26.13;;;10.17;;
813;SDS011;389;48.710;9.392;2023-02-15T01:01:11;23.00;;;10.40;;
813;SDS011;389;48.710;9.392;2023-02-15T01:03:44;23.13;;;12.20;;
813;SDS011;389;48.710;9.392;2023-02-15T01:06:12;24.60;;;10.70;;
813;SDS011;389;48.710;9.392;2023-02-15T01:08:39;26.60;;;12.03;;
813;SDS011;389;48.710;9.392;2023-02-15T01:11:05;25.70;;;11.33;;
813;SDS011;389;48.710;9.392;2023-02-15T01:13:33;21.83;;;11.43;;
813;SDS011;389;48.710;9.392;2023-02-15T01:16:00;28.90;;;11.93;;
813;SDS011;389;48.710;9.392;2023-02-15T01:18:26;22.47;;;11.47;;
813;SDS011;389;48.710;9.392;2023-02-15T01:20:52;23.20;;;10.57;;
813;SDS011;389;48.710;9.392;2023-02-15T01:23:17;27.50;;;10.30;;
813;SDS011;389;48.710;9.392;2023-02-15T01:25:43;24.07;;;11.80;;
813;SDS011;389;48.710;9.392;2023-02-15T01:28:09;23.30;;;11.73;;
813;SDS011;389;48.710;9.392;2023-02-15T01:30:35;21.40;;;10.87;;
813;SDS011;389;48.710;9.392;2023-02-15T01:33:00;24.50;;;11.70;;
813;SDS011;389;48.710;9.392;2023-02-15T01:35:26;26.40;;;11.80;;
813;SDS011;389;48.710;9.392;2023-02-15T01:37:53;29.20;;;10.93;;
813;SDS011;389;48.710;9.392;2023-02-15T01:40:19;20.80;;;11.67;;
813;SDS011;389;48.710;9.392;2023-02-15T01:42:45;23.50;;;11.80;;
813;SDS011;389;48.710;9.392;2023-02-15T01:45:22;26.17;;;12.80;;
813;SDS011;389;48.710;9.392;2023-02-15T01:47:52;24.70;;;11.23;;
813;SDS011;389;48.710;9.392;2023-02-15T01:50:30;31.07;;;11.77;;
813;SDS011;389;48.710;9.392;2023-02-15T01:55:22;26.13;;;11.37;;
813;SDS011;389;48.710;9.392;2023-02-15T01:57:50;21.80;;;10.70;;
813;SDS011;389;48.710;9.392;2023-02-15T02:00:16;23.70;;;9.70;;
813;SDS011;389;48.710;9.392;2023-02-15T02:02:43;22.17;;;11.47;;
813;SDS011;389;48.710;9.392;2023-02-15T02:05:13;35.03;;;14.40;;
813;SDS011;389;48.710;9.392;2023-02-15T02:07:40;25.67;;;11.23;;
813;SDS011;389;48.710;9.392;2023-02-15T02:10:11;28.17;;;11.90;;
813;SDS011;389;48.710;9.392;2023-02-15T02:12:39;26.63;;;12.97;;
813;SDS011;389;48.710;9.392;2023-02-15T02:15:09;28.97;;;12.70;;
813;SDS011;389;48.710;9.392;2023-02-15T02:31:29;21.00;;;9.43;;
813;SDS011;389;48.710;9.392;2023-02-15T02:39:39;23.97;;;9.37;;
813;SDS011;389;48.710;9.392;2023-02-15T02:42:18;21.30;;;9.80;;
813;SDS011;389;48.710;9.392;2023-02-15T02:44:47;23.10;;;9.60;;
813;SDS011;389;48.710;9.392;2023-02-15T02:47:19;23.63;;;11.03;;
813;SDS011;389;48.710;9.392;2023-02-15T02:50:13;17.10;;;8.77;;
813;SDS011;389;48.710;9.392;2023-02-15T02:52:43;19.27;;;9.87;;
813;SDS011;389;48.710;9.392;2023-02-15T02:57:55;20.40;;;9.83;;
813;SDS011;389;48.710;9.392;2023-02-15T03:00:43;30.77;;;11.00;;
813;SDS011;389;48.710;9.392;2023-02-15T03:06:39;21.57;;;9.07;;
813;SDS011;389;48.710;9.392;2023-02-15T03:11:59;27.50;;;11.20;;
813;SDS011;389;48.710;9.392;2023-02-15T03:14:26;28.40;;;11.50;;
813;SDS011;389;48.710;9.392;2023-02-15T03:16:52;22.97;;;10.43;;
813;SDS011;389;48.710;9.392;2023-02-15T03:19:27;24.20;;;11.70;;
813;SDS011;389;48.710;9.392;2023-02-15T03:21:56;22.83;;;9.77;;
813;SDS011;389;48.710;9.392;2023-02-15T03:27:27;33.53;;;12.10;;
813;SDS011;389;48.710;9.392;2023-02-15T03:30:02;21.87;;;11.40;;
813;SDS011;389;48.710;9.392;2023-02-15T03:32:32;29.30;;;11.23;;
813;SDS011;389;48.710;9.392;2023-02-15T03:34:59;24.07;;;10.93;;
813;SDS011;389;48.710;9.392;2023-02-15T03:37:26;23.53;;;11.93;;
813;SDS011;389;48.710;9.392;2023-02-15T03:40:16;25.07;;;10.77;;
813;SDS011;389;48.710;9.392;2023-02-15T03:43:17;19.43;;;10.13;;
813;SDS011;389;48.710;9.392;2023-02-15T03:45:57;17.07;;;9.20;;
813;SDS011;389;48.710;9.392;2023-02-15T03:48:32;16.63;;;9.13;;
813;SDS011;389;48.710;9.392;2023-02-15T03:51:09;13.60;;;8.80;;
813;SDS011;389;48.710;9.392;2023-02-15T03:54:04;16.27;;;9.03;;
813;SDS011;389;48.710;9.392;2023-02-15T03:56:36;20.40;;;9.17;;
813;SDS011;389;48.710;9.392;2023-02-15T03:59:03;22.77;;;10.10;;
813;SDS011;389;48.710;9.392;2023-02-15T04:04:39;26.17;;;9.40;;
813;SDS011;389;48.710;9.392;2023-02-15T04:07:08;23.13;;;10.60;;
813;SDS011;389;48.710;9.392;2023-02-15T04:09:34;21.87;;;10.10;;
813;SDS011;389;48.710;9.392;2023-02-15T04:12:19;21.70;;;9.57;;
813;SDS011;389;48.710;9.392;2023-02-15T04:14:44;25.30;;;10.13;;
813;SDS011;389;48.710;9.392;2023-02-15T04:17:28;17.83;;;8.60;;
813;SDS011;389;48.710;9.392;2023-02-15T04:19:54;25.63;;;9.33;;
813;SDS011;389;48.710;9.392;2023-02-15T04:22:39;15.30;;;7.77;;
813;SDS011;389;48.710;9.392;2023-02-15T04:25:23;19.00;;;8.17;;
813;SDS011;389;48.710;9.392;2023-02-15T04:27:50;15.33;;;8.40;;
813;SDS011;389;48.710;9.392;2023-02-15T04:30:18;18.73;;;10.03;;
813;SDS011;389;48.710;9.392;2023-02-15T04:32:46;17.20;;;8.57;;
813;SDS011;389;48.710;9.392;2023-02-15T04:35:11;17.97;;;9.30;;
813;SDS011;389;48.710;9.392;2023-02-15T04:37:38;13.63;;;8.80;;
813;SDS011;389;48.710;9.392;2023-02-15T04:40:04;20.90;;;9.97;;
813;SDS011;389;48.710;9.392;2023-02-15T04:42:31;19.07;;;10.20;;
813;SDS011;389;48.710;9.392;2023-02-15T04:44:57;25.83;;;10.63;;
813;SDS011;389;48.710;9.392;2023-02-15T04:47:22;25.50;;;10.87;;
813;SDS011;389;48.710;9.392;2023-02-15T04:49:48;25.60;;;12.30;;
813;SDS011;389;48.710;9.392;2023-02-15T04:52:14;21.03;;;9.87;;
813;SDS011;389;48.710;9.392;2023-02-15T04:54:39;21.70;;;9.90;;
813;SDS011;389;48.710;9.392;2023-02-15T04:57:05;23.90;;;10.00;;
813;SDS011;389;48.710;9.392;2023-02-15T04:59:31;26.80;;;8.47;;
813;SDS011;389;48.710;9.392;2023-02-15T05:01:56;19.50;;;8.83;;
813;SDS011;389;48.710;9.392;2023-02-15T05:04:22;20.57;;;10.87;;
813;SDS011;389;48.710;9.392;2023-02-15T05:06:48;19.80;;;11.00;;
813;SDS011;389;48.710;9.392;2023-02-15T05:09:13;18.77;;;9.83;;
813;SDS011;389;48.710;9.392;2023-02-15T05:11:39;19.57;;;10.47;;
813;SDS011;389;48.710;9.392;2023-02-15T05:14:06;22.00;;;10.47;;
813;SDS011;389;48.710;9.392;2023-02-15T05:16:32;18.33;;;10.00;;
813;SDS011;389;48.710;9.392;2023-02-15T05:18:57;26.70;;;9.70;;
813;SDS011;389;48.710;9.392;2023-02-15T05:21:23;19.27;;;9.47;;
813;SDS011;389;48.710;9.392;2023-02-15T05:23:49;26.83;;;11.87;;
813;SDS011;389;48.710;9.392;2023-02-15T05:26:18;22.00;;;10.87;;
813;SDS011;389;48.710;9.392;2023-02-15T05:29:04;15.13;;;8.07;;
813;SDS011;389;48.710;9.392;2023-02-15T05:31:31;23.93;;;10.00;;
813;SDS011;389;48.710;9.392;2023-02-15T05:33:57;29.27;;;11.87;;
813;SDS011;389;48.710;9.392;2023-02-15T05:36:23;22.57;;;10.37;;
813;SDS011;389;48.710;9.392;2023-02-15T05:38:49;24.80;;;10.97;;
813;SDS011;389;48.710;9.392;2023-02-15T05:41:14;27.90;;;12.47;;
813;SDS011;389;48.710;9.392;2023-02-15T05:43:40;20.97;;;11.20;;
813;SDS011;389;48.710;9.392;2023-02-15T05:46:06;21.70;;;10.20;;
813;SDS011;389;48.710;9.392;2023-02-15T05:48:32;20.47;;;10.43;;
813;SDS011;389;48.710;9.392;2023-02-15T05:51:00;28.33;;;11.50;;
813;SDS011;389;48.710;9.392;2023-02-15T05:53:30;23.70;;;12.30;;
813;SDS011;389;48.710;9.392;2023-02-15T05:55:57;17.30;;;10.87;;
813;SDS011;389;48.710;9.392;2023-02-15T05:58:27;23.57;;;12.57;;
813;SDS011;389;48.710;9.392;2023-02-15T06:00:54;23.73;;;12.10;;
813;SDS011;389;48.710;9.392;2023-02-15T06:03:20;27.70;;;12.40;;
813;SDS011;389;48.710;9.392;2023-02-15T06:05:46;22.10;;;11.13;;
813;SDS011;389;48.710;9.392;2023-02-15T06:08:11;21.60;;;10.00;;
813;SDS011;389;48.710;9.392;2023-02-15T06:10:37;22.43;;;10.40;;
813;SDS011;389;48.710;9.392;2023-02-15T06:13:02;19.57;;;11.50;;
813;SDS011;389;48.710;9.392;2023-02-15T06:15:28;26.57;;;11.67;;
813;SDS011;389;48.710;9.392;2023-02-15T06:17:53;19.43;;;10.20;;
813;SDS011;389;48.710;9.392;2023-02-15T06:20:19;23.90;;;10.63;;
813;SDS011;389;48.710;9.392;2023-02-15T06:22:44;20.40;;;10.20;;
813;SDS011;389;48.710;9.392;2023-02-15T06:25:10;27.83;;;11.00;;
813;SDS011;389;48.710;9.392;2023-02-15T06:27:36;24.90;;;10.80;;
813;SDS011;389;48.710;9.392;2023-02-15T06:30:04;23.73;;;11.63;;
813;SDS011;389;48.710;9.392;2023-02-15T06:32:30;24.50;;;10.87;;
813;SDS011;389;48.710;9.392;2023-02-15T06:34:56;22.23;;;11.23;;
813;SDS011;389;48.710;9.392;2023-02-15T06:37:21;22.70;;;11.90;;
813;SDS011;389;48.710;9.392;2023-02-15T06:39:47;19.87;;;11.10;;
813;SDS011;389;48.710;9.392;2023-02-15T06:42:13;19.40;;;10.17;;
813;SDS011;389;48.710;9.392;2023-02-15T06:44:38;15.70;;;9.47;;
813;SDS011;389;48.710;9.392;2023-02-15T06:47:04;18.17;;;9.00;;
813;SDS011;389;48.710;9.392;2023-02-15T06:49:29;15.83;;;9.00;;
813;SDS011;389;48.710;9.392;2023-02-15T06:51:55;24.83;;;9.60;;
813;SDS011;389;48.710;9.392;2023-02-15T06:54:20;17.57;;;10.43;;
813;SDS011;389;48.710;9.392;2023-02-15T06:56:46;18.73;;;9.23;;
813;SDS011;389;48.710;9.392;2023-02-15T06:59:11;16.50;;;9.70;;
813;SDS011;389;48.710;9.392;2023-02-15T07:01:37;25.47;;;11.37;;
813;SDS011;389;48.710;9.392;2023-02-15T07:04:03;19.90;;;12.33;;
813;SDS011;389;48.710;9.392;2023-02-15T07:06:32;19.30;;;9.60;;
813;SDS011;389;48.710;9.392;2023-02-15T07:08:58;19.07;;;10.30;;
813;SDS011;389;48.710;9.392;2023-02-15T07:11:24;21.10;;;10.40;;
813;SDS011;389;48.710;9.392;2023-02-15T07:14:08;20.73;;;9.47;;
813;SDS011;389;48.710;9.392;2023-02-15T07:16:34;20.07;;;10.07;;
813;SDS011;389;48.710;9.392;2023-02-15T07:18:59;21.33;;;10.40;;
813;SDS011;389;48.710;9.392;2023-02-15T07:21:25;19.97;;;9.50;;
813;SDS011;389;48.710;9.392;2023-02-15T07:23:50;16.87;;;8.80;;
813;SDS011;389;48.710;9.392;2023-02-15T07:26:16;17.67;;;10.07;;
813;SDS011;389;48.710;9.392;2023-02-15T07:28:41;20.00;;;10.17;;
813;SDS011;389;48.710;9.392;2023-02-15T07:31:07;21.90;;;10.47;;
813;SDS011;389;48.710;9.392;2023-02-15T07:33:33;21.93;;;11.40;;
813;SDS011;389;48.710;9.392;2023-02-15T07:36:00;26.23;;;11.27;;
813;SDS011;389;48.710;9.392;2023-02-15T07:38:31;20.87;;;10.00;;
813;SDS011;389;48.710;9.392;2023-02-15T07:40:59;20.23;;;11.00;;
813;SDS011;389;48.710;9.392;2023-02-15T07:43:26;25.30;;;12.23;;
813;SDS011;389;48.710;9.392;2023-02-15T07:45:52;25.47;;;11.00;;
813;SDS011;389;48.710;9.392;2023-02-15T07:48:17;31.60;;;12.87;;
813;SDS011;389;48.710;9.392;2023-02-15T07:50:43;21.00;;;12.27;;
813;SDS011;389;48.710;9.392;2023-02-15T07:53:08;27.80;;;13.20;;
813;SDS011;389;48.710;9.392;2023-02-15T07:55:34;24.00;;;12.53;;
813;SDS011;389;48.710;9.392;2023-02-15T07:58:00;25.87;;;13.47;;
813;SDS011;389;48.710;9.392;2023-02-15T08:00:25;39.53;;;16.13;;
813;SDS011;389;48.710;9.392;2023-02-15T08:02:52;28.10;;;13.53;;
813;SDS011;389;48.710;9.392;2023-02-15T08:05:38;32.30;;;12.47;;
813;SDS011;389;48.710;9.392;2023-02-15T08:08:05;32.70;;;15.70;;
813;SDS011;389;48.710;9.392;2023-02-15T08:10:31;30.37;;;14.83;;
813;SDS011;389;48.710;9.392;2023-02-15T08:13:16;29.53;;;14.30;;
813;SDS011;389;48.710;9.392;2023-02-15T08:15:49;31.57;;;14.07;;
813;SDS011;389;48.710;9.392;2023-02-15T08:18:15;33.57;;;15.10;;
813;SDS011;389;48.710;9.392;2023-02-15T08:20:41;28.13;;;14.77;;
813;SDS011;389;48.710;9.392;2023-02-15T08:23:06;32.03;;;14.67;;
813;SDS011;389;48.710;9.392;2023-02-15T08:25:32;39.87;;;17.47;;
813;SDS011;389;48.710;9.392;2023-02-15T08:27:57;36.43;;;16.90;;
813;SDS011;389;48.710;9.392;2023-02-15T08:30:23;29.80;;;16.33;;
813;SDS011;389;48.710;9.392;2023-02-15T08:32:48;28.03;;;15.07;;
813;SDS011;389;48.710;9.392;2023-02-15T08:35:14;34.67;;;16.33;;
813;SDS011;389;48.710;9.392;2023-02-15T08:37:39;37.47;;;17.30;;
813;SDS011;389;48.710;9.392;2023-02-15T08:40:05;32.00;;;15.07;;
813;SDS011;389;48.710;9.392;2023-02-15T08:42:32;35.33;;;16.17;;
813;SDS011;389;48.710;9.392;2023-02-15T08:44:58;29.97;;;16.57;;
813;SDS011;389;48.710;9.392;2023-02-15T08:47:24;34.60;;;16.17;;
813;SDS011;389;48.710;9.392;2023-02-15T08:49:49;31.80;;;16.37;;
813;SDS011;389;48.710;9.392;2023-02-15T08:52:16;31.63;;;15.97;;
813;SDS011;389;48.710;9.392;2023-02-15T08:54:42;33.67;;;16.80;;
813;SDS011;389;48.710;9.392;2023-02-15T08:57:07;36.13;;;17.30;;
813;SDS011;389;48.710;9.392;2023-02-15T08:59:34;30.70;;;15.03;;
813;SDS011;389;48.710;9.392;2023-02-15T09:02:00;30.63;;;15.93;;
813;SDS011;389;48.710;9.392;2023-02-15T09:04:26;34.00;;;17.00;;
813;SDS011;389;48.710;9.392;2023-02-15T09:06:52;37.20;;;16.80;;
813;SDS011;389;48.710;9.392;2023-02-15T09:09:18;33.00;;;16.00;;
813;SDS011;389;48.710;9.392;2023-02-15T09:11:45;31.10;;;16.23;;
813;SDS011;389;48.710;9.392;2023-02-15T09:14:14;35.90;;;16.87;;
813;SDS011;389;48.710;9.392;2023-02-15T09:16:42;32.50;;;16.93;;
813;SDS011;389;48.710;9.392;2023-02-15T09:19:11;39.97;;;17.87;;
813;SDS011;389;48.710;9.392;2023-02-15T09:21:37;36.07;;;18.10;;
813;SDS011;389;48.710;9.392;2023-02-15T09:24:04;39.60;;;17.43;;
813;SDS011;389;48.710;9.392;2023-02-15T09:26:32;36.87;;;17.83;;
813;SDS011;389;48.710;9.392;2023-02-15T09:29:00;37.93;;;16.07;;
813;SDS011;389;48.710;9.392;2023-02-15T09:31:29;37.13;;;16.63;;
813;SDS011;389;48.710;9.392;2023-02-15T09:34:36;39.93;;;17.17;;
813;SDS011;389;48.710;9.392;2023-02-15T09:37:04;42.13;;;17.90;;
813;SDS011;389;48.710;9.392;2023-02-15T09:39:31;37.00;;;16.80;;
813;SDS011;389;48.710;9.392;2023-02-15T09:48:08;38.93;;;19.30;;
813;SDS011;389;48.710;9.392;2023-02-15T09:50:56;41.57;;;18.30;;
813;SDS011;389;48.710;9.392;2023-02-15T09:53:47;38.20;;;18.13;;
813;SDS011;389;48.710;9.392;2023-02-15T09:56:32;38.63;;;17.83;;
813;SDS011;389;48.710;9.392;2023-02-15T09:59:19;37.90;;;17.00;;
813;SDS011;389;48.710;9.392;2023-02-15T10:04:50;30.87;;;18.10;;
813;SDS011;389;48.710;9.392;2023-02-15T10:19:40;39.67;;;19.77;;
813;SDS011;389;48.710;9.392;2023-02-15T10:25:20;37.13;;;19.07;;
813;SDS011;389;48.710;9.392;2023-02-15T10:27:57;37.80;;;17.07;;
813;SDS011;389;48.710;9.392;2023-02-15T10:30:48;30.97;;;16.77;;
813;SDS011;389;48.710;9.392;2023-02-15T10:33:21;36.63;;;17.60;;
813;SDS011;389;48.710;9.392;2023-02-15T10:36:04;26.40;;;14.17;;
813;SDS011;389;48.710;9.392;2023-02-15T10:55:41;20.27;;;12.93;;
813;SDS011;389;48.710;9.392;2023-02-15T11:04:06;21.23;;;12.20;;
813;SDS011;389;48.710;9.392;2023-02-15T11:06:54;24.10;;;12.60;;
813;SDS011;389;48.710;9.392;2023-02-15T11:09:29;22.70;;;12.43;;
813;SDS011;389;48.710;9.392;2023-02-15T11:12:03;23.10;;;11.97;;
813;SDS011;389;48.710;9.392;2023-02-15T11:17:18;20.00;;;12.00;;
813;SDS011;389;48.710;9.392;2023-02-15T11:22:34;17.40;;;11.03;;
813;SDS011;389;48.710;9.392;2023-02-15T11:27:31;18.20;;;11.23;;
813;SDS011;389;48.710;9.392;2023-02-15T11:32:46;22.77;;;12.70;;
813;SDS011;389;48.710;9.392;2023-02-15T11:45:58;20.27;;;11.70;;
813;SDS011;389;48.710;9.392;2023-02-15T11:55:18;17.87;;;10.43;;
813;SDS011;389;48.710;9.392;2023-02-15T12:01:36;18.10;;;10.40;;
813;SDS011;389;48.710;9.392;2023-02-15T12:08:18;15.87;;;10.33;;
813;SDS011;389;48.710;9.392;2023-02-15T12:14:51;16.20;;;10.30;;
813;SDS011;389;48.710;9.392;2023-02-15T12:20:49;15.90;;;9.40;;
813;SDS011;389;48.710;9.392;2023-02-15T12:23:20;12.93;;;8.30;;
813;SDS011;389;48.710;9.392;2023-02-15T12:29:41;17.90;;;9.80;;
813;SDS011;389;48.710;9.392;2023-02-15T12:32:27;15.23;;;9.40;;
813;SDS011;389;48.710;9.392;2023-02-15T12:34:59;17.17;;;9.87;;
813;SDS011;389;48.710;9.392;2023-02-15T12:37:50;15.00;;;8.73;;
813;SDS011;389;48.710;9.392;2023-02-15T12:40:21;15.57;;;9.20;;
813;SDS011;389;48.710;9.392;2023-02-15T12:42:52;18.47;;;9.40;;
813;SDS011;389;48.710;9.392;2023-02-15T12:45:24;20.50;;;9.27;;
813;SDS011;389;48.710;9.392;2023-02-15T12:48:09;14.03;;;8.43;;
813;SDS011;389;48.710;9.392;2023-02-15T12:50:39;15.70;;;9.80;;
813;SDS011;389;48.710;9.392;2023-02-15T12:53:19;14.80;;;9.57;;
813;SDS011;389;48.710;9.392;2023-02-15T12:55:51;14.73;;;9.73;;
813;SDS011;389;48.710;9.392;2023-02-15T12:58:25;14.00;;;9.40;;
813;SDS011;389;48.710;9.392;2023-02-15T13:01:01;17.00;;;10.17;;
813;SDS011;389;48.710;9.392;2023-02-15T13:03:33;16.37;;;10.03;;
813;SDS011;389;48.710;9.392;2023-02-15T13:14:20;15.00;;;10.23;;
813;SDS011;389;48.710;9.392;2023-02-15T13:17:15;16.70;;;11.03;;
813;SDS011;389;48.710;9.392;2023-02-15T13:20:30;17.17;;;10.37;;
813;SDS011;389;48.710;9.392;2023-02-15T13:34:45;16.87;;;10.60;;
813;SDS011;389;48.710;9.392;2023-02-15T14:24:49;25.17;;;11.97;;
813;SDS011;389;48.710;9.392;2023-02-15T15:20:40;26.73;;;16.30;;
813;SDS011;389;48.710;9.392;2023-02-15T15:25:45;29.03;;;17.30;;
813;SDS011;389;48.710;9.392;2023-02-15T15:30:57;23.00;;;16.00;;
813;SDS011;389;48.710;9.392;2023-02-15T15:33:37;30.40;;;18.40;;
813;SDS011;389;48.710;9.392;2023-02-15T15:39:00;28.97;;;18.17;;
813;SDS011;389;48.710;9.392;2023-02-15T15:41:53;27.83;;;17.13;;
813;SDS011;389;48.710;9.392;2023-02-15T15:47:13;29.67;;;18.13;;
813;SDS011;389;48.710;9.392;2023-02-15T15:49:45;30.47;;;17.70;;
813;SDS011;389;48.710;9.392;2023-02-15T15:52:15;31.83;;;18.53;;
813;SDS011;389;48.710;9.392;2023-02-15T15:54:43;26.67;;;17.07;;
813;SDS011;389;48.710;9.392;2023-02-15T15:57:32;26.40;;;15.80;;
813;SDS011;389;48.710;9.392;2023-02-15T16:00:03;30.23;;;17.33;;
813;SDS011;389;48.710;9.392;2023-02-15T16:02:53;28.77;;;17.37;;
813;SDS011;389;48.710;9.392;2023-02-15T16:05:20;32.00;;;16.47;;
813;SDS011;389;48.710;9.392;2023-02-15T16:07:46;28.10;;;17.40;;
813;SDS011;389;48.710;9.392;2023-02-15T16:12:48;32.23;;;17.13;;
813;SDS011;389;48.710;9.392;2023-02-15T16:15:25;30.13;;;16.40;;
813;SDS011;389;48.710;9.392;2023-02-15T16:18:14;32.83;;;18.27;;
813;SDS011;389;48.710;9.392;2023-02-15T16:20:42;31.37;;;19.53;;
813;SDS011;389;48.710;9.392;2023-02-15T16:28:34;40.23;;;19.37;;
813;SDS011;389;48.710;9.392;2023-02-15T16:31:13;66.20;;;34.20;;
813;SDS011;389;48.710;9.392;2023-02-15T16:33:41;39.57;;;20.60;;
813;SDS011;389;48.710;9.392;2023-02-15T16:36:11;36.40;;;21.40;;
813;SDS011;389;48.710;9.392;2023-02-15T16:41:14;34.60;;;21.40;;
813;SDS011;389;48.710;9.392;2023-02-15T16:43:49;34.03;;;19.07;;
813;SDS011;389;48.710;9.392;2023-02-15T16:46:23;32.53;;;18.83;;
813;SDS011;389;48.710;9.392;2023-02-15T16:48:56;29.70;;;18.83;;
813;SDS011;389;48.710;9.392;2023-02-15T16:51:25;36.23;;;19.17;;
813;SDS011;389;48.710;9.392;2023-02-15T16:53:54;40.13;;;19.50;;
813;SDS011;389;48.710;9.392;2023-02-15T16:56:22;39.33;;;20.33;;
813;SDS011;389;48.710;9.392;2023-02-15T16:58:51;36.47;;;18.90;;
813;SDS011;389;48.710;9.392;2023-02-15T17:01:20;34.20;;;19.23;;
813;SDS011;389;48.710;9.392;2023-02-15T17:03:50;40.77;;;19.93;;
813;SDS011;389;48.710;9.392;2023-02-15T17:06:35;42.00;;;20.97;;
813;SDS011;389;48.710;9.392;2023-02-15T17:09:04;39.40;;;21.27;;
813;SDS011;389;48.710;9.392;2023-02-15T17:11:42;34.13;;;21.17;;
813;SDS011;389;48.710;9.392;2023-02-15T17:16:35;36.83;;;21.37;;
813;SDS011;389;48.710;9.392;2023-02-15T17:19:16;33.57;;;19.00;;
813;SDS011;389;48.710;9.392;2023-02-15T17:21:48;33.17;;;18.93;;
813;SDS011;389;48.710;9.392;2023-02-15T17:24:17;40.03;;;21.23;;
813;SDS011;389;48.710;9.392;2023-02-15T17:26:50;41.20;;;20.60;;
813;SDS011;389;48.710;9.392;2023-02-15T17:32:32;38.23;;;19.93;;
813;SDS011;389;48.710;9.392;2023-02-15T17:41:51;50.93;;;25.83;;
813;SDS011;389;48.710;9.392;2023-02-15T17:44:33;55.60;;;24.30;;
813;SDS011;389;48.710;9.392;2023-02-15T17:46:59;50.20;;;24.27;;
813;SDS011;389;48.710;9.392;2023-02-15T17:49:25;56.80;;;26.77;;
813;SDS011;389;48.710;9.392;2023-02-15T17:52:02;65.30;;;27.33;;
813;SDS011;389;48.710;9.392;2023-02-15T17:54:28;61.90;;;29.03;;
813;SDS011;389;48.710;9.392;2023-02-15T17:57:12;48.20;;;26.20;;
813;SDS011;389;48.710;9.392;2023-02-15T17:59:40;46.53;;;25.47;;
813;SDS011;389;48.710;9.392;2023-02-15T18:02:24;45.83;;;23.57;;
813;SDS011;389;48.710;9.392;2023-02-15T18:05:11;48.63;;;24.53;;
813;SDS011;389;48.710;9.392;2023-02-15T18:07:57;41.17;;;22.50;;
813;SDS011;389;48.710;9.392;2023-02-15T18:10:41;42.67;;;22.90;;
813;SDS011;389;48.710;9.392;2023-02-15T18:13:25;40.60;;;21.87;;
813;SDS011;389;48.710;9.392;2023-02-15T18:15:51;42.17;;;22.80;;
813;SDS011;389;48.710;9.392;2023-02-15T18:18:16;51.47;;;28.47;;
813;SDS011;389;48.710;9.392;2023-02-15T18:20:42;46.50;;;25.13;;
813;SDS011;389;48.710;9.392;2023-02-15T18:23:11;38.70;;;21.50;;
813;SDS011;389;48.710;9.392;2023-02-15T18:25:40;43.13;;;20.93;;
813;SDS011;389;48.710;9.392;2023-02-15T18:28:07;35.40;;;18.80;;
813;SDS011;389;48.710;9.392;2023-02-15T18:30:34;35.17;;;18.40;;
813;SDS011;389;48.710;9.392;2023-02-15T18:33:00;35.37;;;17.53;;
813;SDS011;389;48.710;9.392;2023-02-15T18:35:27;34.20;;;18.70;;
813;SDS011;389;48.710;9.392;2023-02-15T18:37:56;35.33;;;19.50;;
813;SDS011;389;48.710;9.392;2023-02-15T18:40:24;35.77;;;20.33;;
813;SDS011;389;48.710;9.392;2023-02-15T18:42:51;34.57;;;19.13;;
813;SDS011;389;48.710;9.392;2023-02-15T18:47:44;36.90;;;19.50;;
813;SDS011;389;48.710;9.392;2023-02-15T18:50:12;36.23;;;19.50;;
813;SDS011;389;48.710;9.392;2023-02-15T18:52:39;37.57;;;18.33;;
813;SDS011;389;48.710;9.392;2023-02-15T18:55:39;31.27;;;16.93;;
813;SDS011;389;48.710;9.392;2023-02-15T18:57:59;33.37;;;17.60;;
813;SDS011;389;48.710;9.392;2023-02-15T19:00:26;35.67;;;17.57;;
813;SDS011;389;48.710;9.392;2023-02-15T19:02:53;39.13;;;21.17;;
813;SDS011;389;48.710;9.392;2023-02-15T19:05:23;49.30;;;22.63;;
813;SDS011;389;48.710;9.392;2023-02-15T19:07:56;51.37;;;23.57;;
813;SDS011;389;48.710;9.392;2023-02-15T19:10:24;99.73;;;37.50;;
813;SDS011;389;48.710;9.392;2023-02-15T19:12:51;101.37;;;37.50;;
813;SDS011;389;48.710;9.392;2023-02-15T19:15:22;76.93;;;34.90;;
813;SDS011;389;48.710;9.392;2023-02-15T19:17:49;77.20;;;31.50;;
813;SDS011;389;48.710;9.392;2023-02-15T19:20:20;61.63;;;27.20;;
813;SDS011;389;48.710;9.392;2023-02-15T19:22:48;50.87;;;24.03;;
813;SDS011;389;48.710;9.392;2023-02-15T19:25:19;52.90;;;23.57;;
813;SDS011;389;48.710;9.392;2023-02-15T19:27:48;52.60;;;22.73;;
813;SDS011;389;48.710;9.392;2023-02-15T19:30:17;51.27;;;21.30;;
813;SDS011;389;48.710;9.392;2023-02-15T19:33:01;43.97;;;21.40;;
813;SDS011;389;48.710;9.392;2023-02-15T19:35:29;44.13;;;19.90;;
813;SDS011;389;48.710;9.392;2023-02-15T19:37:59;41.93;;;20.87;;
813;SDS011;389;48.710;9.392;2023-02-15T19:40:28;38.47;;;19.10;;
813;SDS011;389;48.710;9.392;2023-02-15T19:42:56;39.93;;;19.70;;
813;SDS011;389;48.710;9.392;2023-02-15T19:45:23;39.07;;;20.90;;
813;SDS011;389;48.710;9.392;2023-02-15T19:47:50;39.40;;;18.40;;
813;SDS011;389;48.710;9.392;2023-02-15T19:50:19;44.93;;;19.77;;
813;SDS011;389;48.710;9.392;2023-02-15T19:52:46;40.53;;;20.47;;
813;SDS011;389;48.710;9.392;2023-02-15T19:57:51;61.63;;;25.20;;
813;SDS011;389;48.710;9.392;2023-02-15T20:00:19;54.77;;;21.67;;
813;SDS011;389;48.710;9.392;2023-02-15T20:02:47;34.40;;;17.20;;
813;SDS011;389;48.710;9.392;2023-02-15T20:05:13;32.97;;;16.13;;
813;SDS011;389;48.710;9.392;2023-02-15T20:07:38;35.83;;;17.07;;
813;SDS011;389;48.710;9.392;2023-02-15T20:10:48;41.63;;;18.63;;
813;SDS011;389;48.710;9.392;2023-02-15T20:12:56;35.23;;;17.17;;
813;SDS011;389;48.710;9.392;2023-02-15T20:15:23;40.10;;;18.73;;
813;SDS011;389;48.710;9.392;2023-02-15T20:17:51;34.57;;;17.97;;
813;SDS011;389;48.710;9.392;2023-02-15T20:20:17;26.83;;;16.57;;
813;SDS011;389;48.710;9.392;2023-02-15T20:22:43;34.97;;;17.90;;
813;SDS011;389;48.710;9.392;2023-02-15T20:25:12;34.07;;;17.70;;
813;SDS011;389;48.710;9.392;2023-02-15T20:27:47;38.83;;;20.30;;